Latest Weather Observations for Hope Banks Beacon

IDQ60901

Issued at 2:51 pm EST Saturday 24 February 2024 (issued every 10 minutes, with the page automatically refreshed every 10 minutes)

About weather observations | Map of Brisbane area stations | Latest observations for Brisbane area | Other Formats
Station Details ID: 200897 Name: HOPE BANKS BEACON Lat: -27.43 Lon: 153.29 Height: 7.0 m
Data from the previous 72 hours. | See also: Recent months for locations in Queensland
Date/Time
EST
Temp
°C
App
Temp
°C
Dew
Point
°C
Rel
Hum
%
Delta-T
°C
Wind Press
QNH
hPa
Press
MSL
hPa
Rain since
9am
mm
Dir  Spd
km/h
Gust
km/h
Spd
kts
Gust
kts
24/02:30pm - - - - - SW 19 22 10 12 - - -
24/02:00pm - - - - - WSW 15 19 8 10 - - -
24/01:30pm - - - - - SW 19 22 10 12 - - -
24/01:00pm - - - - - WSW 17 20 9 11 - - -
24/12:30pm - - - - - WSW 19 22 10 12 - - -
24/12:00pm - - - - - W 17 20 9 11 - - -
24/11:30am - - - - - WNW 11 15 6 8 - - -
24/11:00am - - - - - NW 4 6 2 3 - - -
24/10:30am - - - - - NW 4 6 2 3 - - -
24/10:00am - - - - - NNW 7 9 4 5 - - -
24/09:30am - - - - - NNW 13 15 7 8 - - -
24/09:00am - - - - - NNW 15 17 8 9 - - -
24/08:30am - - - - - NNW 19 20 10 11 - - -
24/08:00am - - - - - NNW 22 24 12 13 - - -
24/07:30am - - - - - N 19 20 10 11 - - -
24/07:00am - - - - - N 22 24 12 13 - - -
24/06:30am - - - - - N 20 24 11 13 - - -
24/06:00am - - - - - NNW 19 22 10 12 - - -
24/05:30am - - - - - N 20 24 11 13 - - -
24/05:00am - - - - - N 19 22 10 12 - - -
24/04:30am - - - - - NNW 20 24 11 13 - - -
24/04:00am - - - - - N 22 24 12 13 - - -
24/03:30am - - - - - N 24 26 13 14 - - -
24/03:00am - - - - - N 22 24 12 13 - - -
24/02:30am - - - - - N 24 28 13 15 - - -
24/02:00am - - - - - N 28 33 15 18 - - -
24/01:30am - - - - - N 28 33 15 18 - - -
24/01:00am - - - - - N 26 33 14 18 - - -
24/12:30am - - - - - N 24 32 13 17 - - -
24/12:00am - - - - - N 28 32 15 17 - - -
 
Date/Time
EST
Temp
°C
App
Temp
°C
Dew
Point
°C
Rel
Hum
%
Delta-T
°C
Wind Press
QNH
hPa
Press
MSL
hPa
Rain since
9am
mm
Dir  Spd
km/h
Gust
km/h
Spd
kts
Gust
kts
23/11:30pm - - - - - N 28 32 15 17 - - -
23/11:00pm - - - - - N 28 33 15 18 - - -
23/10:30pm - - - - - N 26 33 14 18 - - -
23/10:00pm - - - - - N 28 33 15 18 - - -
23/09:30pm - - - - - N 24 28 13 15 - - -
23/09:00pm - - - - - N 26 30 14 16 - - -
23/08:30pm - - - - - N 26 30 14 16 - - -
23/08:00pm - - - - - N 28 32 15 17 - - -
23/07:30pm - - - - - N 26 32 14 17 - - -
23/07:00pm - - - - - N 28 32 15 17 - - -
23/06:30pm - - - - - N 28 33 15 18 - - -
23/06:00pm - - - - - N 26 32 14 17 - - -
23/05:30pm - - - - - N 20 24 11 13 - - -
23/05:00pm - - - - - N 22 26 12 14 - - -
23/04:30pm - - - - - NNE 22 30 12 16 - - -
23/04:00pm - - - - - NNE 17 24 9 13 - - -
23/03:30pm - - - - - NNE 13 15 7 8 - - -
23/03:00pm - - - - - NNE 13 17 7 9 - - -
23/02:30pm - - - - - NNE 15 20 8 11 - - -
23/02:00pm - - - - - NNE 19 22 10 12 - - -
23/01:30pm - - - - - NNE 17 20 9 11 - - -
23/01:00pm - - - - - N 19 24 10 13 - - -
23/12:30pm - - - - - N 19 20 10 11 - - -
23/12:00pm - - - - - N 15 20 8 11 - - -
23/11:30am - - - - - N 15 17 8 9 - - -
23/11:00am - - - - - N 11 13 6 7 - - -
23/10:30am - - - - - NNW 9 13 5 7 - - -
23/10:00am - - - - - NNW 9 11 5 6 - - -
23/09:30am - - - - - NNW 11 11 6 6 - - -
23/09:00am - - - - - NNW 11 13 6 7 - - -
23/08:30am - - - - - NNW 13 15 7 8 - - -
23/08:00am - - - - - NNW 13 15 7 8 - - -
23/07:30am - - - - - NNW 13 17 7 9 - - -
23/07:00am - - - - - NNW 17 19 9 10 - - -
23/06:30am - - - - - NNW 15 17 8 9 - - -
23/06:00am - - - - - NNW 13 15 7 8 - - -
23/05:30am - - - - - NNW 9 11 5 6 - - -
23/05:00am - - - - - NNW 9 11 5 6 - - -
23/04:30am - - - - - NNW 13 15 7 8 - - -
23/04:00am - - - - - NNW 15 19 8 10 - - -
23/03:30am - - - - - NNW 17 20 9 11 - - -
23/03:00am - - - - - NNW 13 17 7 9 - - -
23/02:30am - - - - - NNW 13 17 7 9 - - -
23/02:00am - - - - - NNW 11 13 6 7 - - -
23/01:30am - - - - - NNW 11 15 6 8 - - -
23/01:00am - - - - - NW 11 13 6 7 - - -
23/12:30am - - - - - NW 15 19 8 10 - - -
23/12:00am - - - - - NNW 15 19 8 10 - - -
 
Date/Time
EST
Temp
°C
App
Temp
°C
Dew
Point
°C
Rel
Hum
%
Delta-T
°C
Wind Press
QNH
hPa
Press
MSL
hPa
Rain since
9am
mm
Dir  Spd
km/h
Gust
km/h
Spd
kts
Gust
kts
22/11:30pm - - - - - NNW 17 19 9 10 - - -
22/11:00pm - - - - - NNW 17 19 9 10 - - -
22/10:30pm - - - - - N 17 19 9 10 - - -
22/10:00pm - - - - - N 13 19 7 10 - - -
22/09:30pm - - - - - N 13 17 7 9 - - -
22/09:00pm - - - - - N 15 19 8 10 - - -
22/08:30pm - - - - - N 13 17 7 9 - - -
22/08:00pm - - - - - N 17 20 9 11 - - -
22/07:30pm - - - - - N 17 19 9 10 - - -
22/07:00pm - - - - - NNE 19 22 10 12 - - -
22/06:30pm - - - - - NNE 19 24 10 13 - - -
22/06:00pm - - - - - NE 22 26 12 14 - - -
22/05:30pm - - - - - NE 20 28 11 15 - - -
22/05:00pm - - - - - NE 17 22 9 12 - - -
22/04:30pm - - - - - NE 20 22 11 12 - - -
22/04:00pm - - - - - NE 22 26 12 14 - - -
22/03:30pm - - - - - NNE 19 22 10 12 - - -
22/03:00pm - - - - - NNE 19 24 10 13 - - -
22/02:30pm - - - - - NNE 15 19 8 10 - - -
22/02:00pm - - - - - NNE 11 15 6 8 - - -
22/01:30pm - - - - - NE 11 15 6 8 - - -
22/01:00pm - - - - - NNE 11 13 6 7 - - -
22/12:30pm - - - - - N 9 13 5 7 - - -
22/12:00pm - - - - - N 11 13 6 7 - - -
22/11:30am - - - - - NNW 6 7 3 4 - - -
22/11:00am - - - - - N 4 6 2 3 - - -
22/10:30am - - - - - CALM 0 0 0 0 - - -
22/10:00am - - - - - CALM 0 0 0 0 - - -
22/09:30am - - - - - W 2 4 1 2 - - -
22/09:00am - - - - - WSW 6 7 3 4 - - -
22/08:30am - - - - - SW 6 7 3 4 - - -
22/08:00am - - - - - SW 9 13 5 7 - - -
22/07:30am - - - - - SW 9 11 5 6 - - -
22/07:00am - - - - - SW 11 13 6 7 - - -
22/06:30am - - - - - SW 11 13 6 7 - - -
22/06:00am - - - - - SW 9 11 5 6 - - -
22/05:30am - - - - - SW 9 11 5 6 - - -
22/05:00am - - - - - WSW 7 9 4 5 - - -
22/04:30am - - - - - WSW 7 9 4 5 - - -
22/04:00am - - - - - SSW 7 9 4 5 - - -
22/03:30am - - - - - S 11 15 6 8 - - -
22/03:00am - - - - - S 13 13 7 7 - - -
22/02:30am - - - - - S 11 11 6 6 - - -
22/02:00am - - - - - S 13 15 7 8 - - -
22/01:30am - - - - - S 11 13 6 7 - - -
22/01:00am - - - - - SSW 9 9 5 5 - - -
22/12:30am - - - - - S 6 7 3 4 - - -
22/12:00am - - - - - SSW 6 7 3 4 - - -
 
Date/Time
EST
Temp
°C
App
Temp
°C
Dew
Point
°C
Rel
Hum
%
Delta-T
°C
Wind Press
QNH
hPa
Press
MSL
hPa
Rain since
9am
mm
Dir  Spd
km/h
Gust
km/h
Spd
kts
Gust
kts
21/11:30pm - - - - - SSE 6 9 3 5 - - -
21/11:00pm - - - - - SSE 6 7 3 4 - - -
21/10:30pm - - - - - E 6 6 3 3 - - -
21/10:00pm - - - - - E 4 6 2 3 - - -
21/09:30pm - - - - - ESE 6 9 3 5 - - -
21/09:00pm - - - - - ESE 7 9 4 5 - - -
21/08:30pm - - - - - E 11 15 6 8 - - -
21/08:00pm - - - - - E 13 15 7 8 - - -
21/07:30pm - - - - - ESE 13 17 7 9 - - -
21/07:00pm - - - - - ESE 15 17 8 9 - - -
21/06:30pm - - - - - ESE 17 20 9 11 - - -
21/06:00pm - - - - - ESE 19 22 10 12 - - -
21/05:30pm - - - - - ESE 19 22 10 12 - - -
21/05:00pm - - - - - E 19 24 10 13 - - -
21/04:30pm - - - - - E 19 22 10 12 - - -
21/04:00pm - - - - - E 19 22 10 12 - - -
21/03:30pm - - - - - ESE 17 20 9 11 - - -
21/03:00pm - - - - - E 13 19 7 10 - - -

Latest Capital City Observations: Canberra | Sydney | Melbourne | Brisbane | Adelaide | Perth | Hobart | Darwin

Other formats

Comma delimited format used in spreadsheet applications
http://www.bom.gov.au/fwo/IDQ60901/IDQ60901.99497.axf

JavaScript Object Notation format (JSON) in row-major order
http://www.bom.gov.au/fwo/IDQ60901/IDQ60901.99497.json

Data quality

Most of these data are generated automatically and are frequently updated. Quality checks on data are not normally performed. It is possible for incorrect values to appear. Refer to information at About Latest Weather Observations and please check the disclaimer before using these data.